| Date | Time | Temp. (oF) | Dew Point (oF) | Rel. Hum. (%) | Press. (in.) | Wind Dir. | Wind Speed (mph) | Hourly Rainfall (in.) |
|
|---|---|---|---|---|---|---|---|---|---|
| 1 | 10/06 | 00:00 | 51 | 47 | 89 | 30.21 | E | 0 | 0.00 |
| 2 | 10/05 | 23:00 | 52 | 48 | 87 | 30.21 | ENE | 0 | 0.00 |
| 3 | 10/05 | 22:00 | 52 | 46 | 83 | 30.21 | ENE | 0 | 0.00 |
| 4 | 10/05 | 21:00 | 54 | 46 | 76 | 30.20 | ESE | 0 | 0.00 |
| 5 | 10/05 | 20:00 | 58 | 46 | 66 | 30.19 | NNE | 0 | 0.00 |
| 6 | 10/05 | 19:00 | 63 | 45 | 53 | 30.18 | NE | 0 | 0.00 |
| 7 | 10/05 | 18:00 | 69 | 46 | 44 | 30.17 | E | 0 | 0.00 |
| 8 | 10/05 | 17:00 | 72 | 45 | 39 | 30.15 | E | 4 | 0.00 |
| 9 | 10/05 | 16:00 | 72 | 45 | 39 | 30.17 | NNE | 0 | 0.00 |
| 10 | 10/05 | 15:00 | 72 | 45 | 39 | 30.19 | SE | 3 | 0.00 |
| 11 | 10/05 | 14:00 | 70 | 47 | 45 | 30.20 | ENE | 0 | 0.00 |
| 12 | 10/05 | 13:00 | 68 | 47 | 48 | 30.22 | ENE | 0 | 0.00 |
| 13 | 10/05 | 12:00 | 66 | 48 | 53 | 30.25 | NE | 6 | 0.00 |
| 14 | 10/05 | 11:00 | 64 | 52 | 67 | 30.27 | NNE | 4 | 0.00 |
| 15 | 10/05 | 10:00 | 59 | 56 | 91 | 30.28 | ENE | 4 | 0.00 |
| 16 | 10/05 | 09:00 | 55 | 54 | 100 | 30.28 | ENE | 3 | 0.00 |
| 17 | 10/05 | 08:00 | 52 | 51 | 100 | 30.28 | NE | 0 | 0.00 |
| 18 | 10/05 | 07:00 | 52 | 51 | 98 | 30.26 | E | 0 | 0.00 |
| 19 | 10/05 | 06:00 | 53 | 52 | 98 | 30.24 | ENE | 2 | 0.00 |
| 20 | 10/05 | 05:00 | 54 | 53 | 98 | 30.23 | NE | 0 | 0.00 |
| 21 | 10/05 | 04:00 | 55 | 54 | 97 | 30.23 | NNE | 0 | 0.00 |
| 22 | 10/05 | 03:00 | 54 | 53 | 97 | 30.24 | ESE | 0 | 0.00 |
| 23 | 10/05 | 02:00 | 54 | 53 | 97 | 30.24 | ESE | 0 | 0.00 |
| 24 | 10/05 | 01:00 | 54 | 52 | 95 | 30.24 | NNE | 0 | 0.00 |